sensor_id;sensor_type;location;lat;lon;timestamp;temperature;humidity
3208;DHT22;1616;52.394;9.756;2023-09-19T00:00:34;19.20;99.90
3208;DHT22;1616;52.394;9.756;2023-09-19T00:03:01;19.20;99.90
3208;DHT22;1616;52.394;9.756;2023-09-19T00:05:33;19.00;99.90
3208;DHT22;1616;52.394;9.756;2023-09-19T00:08:00;18.90;99.90
3208;DHT22;1616;52.394;9.756;2023-09-19T00:10:27;18.80;99.90
3208;DHT22;1616;52.394;9.756;2023-09-19T00:12:57;18.80;99.90
3208;DHT22;1616;52.394;9.756;2023-09-19T00:15:26;18.80;99.90
3208;DHT22;1616;52.394;9.756;2023-09-19T00:17:55;18.90;99.90
3208;DHT22;1616;52.394;9.756;2023-09-19T00:20:21;18.90;99.90
3208;DHT22;1616;52.394;9.756;2023-09-19T00:22:49;18.80;99.90
3208;DHT22;1616;52.394;9.756;2023-09-19T00:25:17;18.70;99.90
3208;DHT22;1616;52.394;9.756;2023-09-19T00:27:44;18.50;99.90
3208;DHT22;1616;52.394;9.756;2023-09-19T00:30:11;18.50;99.90
3208;DHT22;1616;52.394;9.756;2023-09-19T00:32:47;18.40;99.90
3208;DHT22;1616;52.394;9.756;2023-09-19T00:35:14;18.40;99.90
3208;DHT22;1616;52.394;9.756;2023-09-19T00:37:41;18.40;99.90
3208;DHT22;1616;52.394;9.756;2023-09-19T00:40:10;18.40;99.90
3208;DHT22;1616;52.394;9.756;2023-09-19T00:42:38;18.30;99.90
3208;DHT22;1616;52.394;9.756;2023-09-19T00:45:06;18.40;99.90
3208;DHT22;1616;52.394;9.756;2023-09-19T00:47:32;18.40;99.90
3208;DHT22;1616;52.394;9.756;2023-09-19T00:49:58;18.30;99.90
3208;DHT22;1616;52.394;9.756;2023-09-19T00:52:24;18.30;99.90
3208;DHT22;1616;52.394;9.756;2023-09-19T00:54:50;18.30;99.90
3208;DHT22;1616;52.394;9.756;2023-09-19T00:57:17;18.30;99.90
3208;DHT22;1616;52.394;9.756;2023-09-19T00:59:45;18.30;99.90
3208;DHT22;1616;52.394;9.756;2023-09-19T01:02:15;18.40;99.90
3208;DHT22;1616;52.394;9.756;2023-09-19T01:04:41;18.30;99.90
3208;DHT22;1616;52.394;9.756;2023-09-19T01:07:08;18.30;99.90
3208;DHT22;1616;52.394;9.756;2023-09-19T01:09:34;18.30;99.90
3208;DHT22;1616;52.394;9.756;2023-09-19T01:12:02;18.40;99.90
3208;DHT22;1616;52.394;9.756;2023-09-19T01:17:27;18.40;99.90
3208;DHT22;1616;52.394;9.756;2023-09-19T01:23:07;18.60;99.90
3208;DHT22;1616;52.394;9.756;2023-09-19T01:31:21;18.70;99.90
3208;DHT22;1616;52.394;9.756;2023-09-19T01:34:00;18.70;99.90
3208;DHT22;1616;52.394;9.756;2023-09-19T01:36:31;18.80;99.90
3208;DHT22;1616;52.394;9.756;2023-09-19T01:39:07;18.80;99.90
3208;DHT22;1616;52.394;9.756;2023-09-19T01:44:50;18.80;99.90
3208;DHT22;1616;52.394;9.756;2023-09-19T01:50:07;18.90;99.90
3208;DHT22;1616;52.394;9.756;2023-09-19T01:52:45;18.90;99.90
3208;DHT22;1616;52.394;9.756;2023-09-19T01:55:13;19.00;99.90
3208;DHT22;1616;52.394;9.756;2023-09-19T01:58:04;19.10;99.90
3208;DHT22;1616;52.394;9.756;2023-09-19T02:00:34;19.20;99.90
3208;DHT22;1616;52.394;9.756;2023-09-19T02:03:02;19.20;99.90
3208;DHT22;1616;52.394;9.756;2023-09-19T02:05:28;19.00;99.90
3208;DHT22;1616;52.394;9.756;2023-09-19T02:07:54;19.00;99.90
3208;DHT22;1616;52.394;9.756;2023-09-19T02:10:22;18.90;99.90
3208;DHT22;1616;52.394;9.756;2023-09-19T02:12:49;18.90;99.90
3208;DHT22;1616;52.394;9.756;2023-09-19T02:15:16;19.00;99.90
3208;DHT22;1616;52.394;9.756;2023-09-19T02:17:45;19.00;99.90
3208;DHT22;1616;52.394;9.756;2023-09-19T02:20:12;19.00;99.90
3208;DHT22;1616;52.394;9.756;2023-09-19T02:22:41;19.00;99.90
3208;DHT22;1616;52.394;9.756;2023-09-19T02:25:07;19.10;99.90
3208;DHT22;1616;52.394;9.756;2023-09-19T02:27:34;19.10;99.90
3208;DHT22;1616;52.394;9.756;2023-09-19T02:29:59;19.10;99.90
3208;DHT22;1616;52.394;9.756;2023-09-19T02:32:28;19.00;99.90
3208;DHT22;1616;52.394;9.756;2023-09-19T02:34:55;19.00;99.90
3208;DHT22;1616;52.394;9.756;2023-09-19T02:37:21;18.90;99.90
3208;DHT22;1616;52.394;9.756;2023-09-19T02:39:47;18.80;99.90
3208;DHT22;1616;52.394;9.756;2023-09-19T02:42:13;18.70;99.90
3208;DHT22;1616;52.394;9.756;2023-09-19T02:44:38;18.70;99.90
3208;DHT22;1616;52.394;9.756;2023-09-19T02:47:05;18.60;99.90
3208;DHT22;1616;52.394;9.756;2023-09-19T02:49:31;18.50;99.90
3208;DHT22;1616;52.394;9.756;2023-09-19T02:51:57;18.40;99.90
3208;DHT22;1616;52.394;9.756;2023-09-19T02:54:24;18.50;99.90
3208;DHT22;1616;52.394;9.756;2023-09-19T02:56:50;18.40;99.90
3208;DHT22;1616;52.394;9.756;2023-09-19T02:59:16;18.50;99.90
3208;DHT22;1616;52.394;9.756;2023-09-19T03:01:45;18.60;99.90
3208;DHT22;1616;52.394;9.756;2023-09-19T03:04:13;18.60;99.90
3208;DHT22;1616;52.394;9.756;2023-09-19T03:06:45;18.70;99.90
3208;DHT22;1616;52.394;9.756;2023-09-19T03:09:11;18.80;99.90
3208;DHT22;1616;52.394;9.756;2023-09-19T03:11:37;18.80;99.90
3208;DHT22;1616;52.394;9.756;2023-09-19T03:14:03;18.70;99.90
3208;DHT22;1616;52.394;9.756;2023-09-19T03:16:29;18.60;99.90
3208;DHT22;1616;52.394;9.756;2023-09-19T03:18:55;18.60;99.90
3208;DHT22;1616;52.394;9.756;2023-09-19T03:21:21;18.50;99.90
3208;DHT22;1616;52.394;9.756;2023-09-19T03:23:47;18.50;99.90
3208;DHT22;1616;52.394;9.756;2023-09-19T03:26:13;18.50;99.90
3208;DHT22;1616;52.394;9.756;2023-09-19T03:28:43;18.50;99.90
3208;DHT22;1616;52.394;9.756;2023-09-19T03:31:09;18.50;99.90
3208;DHT22;1616;52.394;9.756;2023-09-19T03:33:35;18.50;99.90
3208;DHT22;1616;52.394;9.756;2023-09-19T03:36:02;18.50;99.90
3208;DHT22;1616;52.394;9.756;2023-09-19T03:38:32;18.50;99.90
3208;DHT22;1616;52.394;9.756;2023-09-19T03:40:59;18.40;99.90
3208;DHT22;1616;52.394;9.756;2023-09-19T03:43:25;18.40;99.90
3208;DHT22;1616;52.394;9.756;2023-09-19T03:45:50;18.50;99.90
3208;DHT22;1616;52.394;9.756;2023-09-19T03:48:16;18.50;99.90
3208;DHT22;1616;52.394;9.756;2023-09-19T03:50:42;18.60;99.90
3208;DHT22;1616;52.394;9.756;2023-09-19T03:53:09;18.50;99.90
3208;DHT22;1616;52.394;9.756;2023-09-19T03:55:35;18.50;99.90
3208;DHT22;1616;52.394;9.756;2023-09-19T03:58:01;18.60;99.90
3208;DHT22;1616;52.394;9.756;2023-09-19T04:00:27;18.60;99.90
3208;DHT22;1616;52.394;9.756;2023-09-19T04:02:55;18.70;99.90
3208;DHT22;1616;52.394;9.756;2023-09-19T04:05:22;18.70;99.90
3208;DHT22;1616;52.394;9.756;2023-09-19T04:07:48;18.50;99.90
3208;DHT22;1616;52.394;9.756;2023-09-19T04:10:13;18.40;99.90
3208;DHT22;1616;52.394;9.756;2023-09-19T04:12:40;18.20;99.90
3208;DHT22;1616;52.394;9.756;2023-09-19T04:15:06;18.10;99.90
3208;DHT22;1616;52.394;9.756;2023-09-19T04:17:33;17.90;99.90
3208;DHT22;1616;52.394;9.756;2023-09-19T04:19:59;17.80;99.90
3208;DHT22;1616;52.394;9.756;2023-09-19T04:22:25;17.70;99.90
3208;DHT22;1616;52.394;9.756;2023-09-19T04:24:51;17.70;99.90
3208;DHT22;1616;52.394;9.756;2023-09-19T04:27:17;17.60;99.90
3208;DHT22;1616;52.394;9.756;2023-09-19T04:29:44;17.40;99.90
3208;DHT22;1616;52.394;9.756;2023-09-19T04:32:10;17.40;99.90
3208;DHT22;1616;52.394;9.756;2023-09-19T04:34:36;17.40;99.90
3208;DHT22;1616;52.394;9.756;2023-09-19T04:37:03;17.40;99.90
3208;DHT22;1616;52.394;9.756;2023-09-19T04:39:29;17.30;99.90
3208;DHT22;1616;52.394;9.756;2023-09-19T04:41:55;17.30;99.90
3208;DHT22;1616;52.394;9.756;2023-09-19T04:44:21;17.30;99.90
3208;DHT22;1616;52.394;9.756;2023-09-19T04:46:47;17.30;99.90
3208;DHT22;1616;52.394;9.756;2023-09-19T04:49:13;17.30;99.90
3208;DHT22;1616;52.394;9.756;2023-09-19T04:51:39;17.40;99.90
3208;DHT22;1616;52.394;9.756;2023-09-19T04:54:06;17.40;99.90
3208;DHT22;1616;52.394;9.756;2023-09-19T04:56:32;17.50;99.90
3208;DHT22;1616;52.394;9.756;2023-09-19T04:58:58;17.40;99.90
3208;DHT22;1616;52.394;9.756;2023-09-19T05:01:27;17.40;99.90
3208;DHT22;1616;52.394;9.756;2023-09-19T05:03:52;17.40;99.90
3208;DHT22;1616;52.394;9.756;2023-09-19T05:06:19;17.30;99.90
3208;DHT22;1616;52.394;9.756;2023-09-19T05:08:47;17.30;99.90
3208;DHT22;1616;52.394;9.756;2023-09-19T05:11:17;17.50;99.90
3208;DHT22;1616;52.394;9.756;2023-09-19T05:13:43;17.30;99.90
3208;DHT22;1616;52.394;9.756;2023-09-19T05:16:08;17.30;99.90
3208;DHT22;1616;52.394;9.756;2023-09-19T05:18:35;17.30;99.90
3208;DHT22;1616;52.394;9.756;2023-09-19T05:21:02;17.30;99.90
3208;DHT22;1616;52.394;9.756;2023-09-19T05:23:28;17.30;99.90
3208;DHT22;1616;52.394;9.756;2023-09-19T05:25:54;17.30;99.90
3208;DHT22;1616;52.394;9.756;2023-09-19T05:28:20;17.20;99.90
3208;DHT22;1616;52.394;9.756;2023-09-19T05:30:45;17.10;99.90
3208;DHT22;1616;52.394;9.756;2023-09-19T05:33:13;17.10;99.90
3208;DHT22;1616;52.394;9.756;2023-09-19T05:35:39;17.00;99.90
3208;DHT22;1616;52.394;9.756;2023-09-19T05:38:05;17.00;99.90
3208;DHT22;1616;52.394;9.756;2023-09-19T05:40:34;17.00;99.90
3208;DHT22;1616;52.394;9.756;2023-09-19T05:43:01;16.90;99.90
3208;DHT22;1616;52.394;9.756;2023-09-19T05:45:31;16.80;99.90
3208;DHT22;1616;52.394;9.756;2023-09-19T05:48:08;16.80;99.90
3208;DHT22;1616;52.394;9.756;2023-09-19T05:50:34;16.80;99.90
3208;DHT22;1616;52.394;9.756;2023-09-19T05:52:59;16.80;99.90
3208;DHT22;1616;52.394;9.756;2023-09-19T05:55:25;16.80;99.90
3208;DHT22;1616;52.394;9.756;2023-09-19T05:57:52;16.90;99.90
3208;DHT22;1616;52.394;9.756;2023-09-19T06:00:22;17.00;99.90
3208;DHT22;1616;52.394;9.756;2023-09-19T06:02:52;17.20;99.90
3208;DHT22;1616;52.394;9.756;2023-09-19T06:05:18;17.50;99.90
3208;DHT22;1616;52.394;9.756;2023-09-19T06:07:44;17.60;99.90
3208;DHT22;1616;52.394;9.756;2023-09-19T06:10:10;17.90;99.90
3208;DHT22;1616;52.394;9.756;2023-09-19T06:12:44;18.10;99.90
3208;DHT22;1616;52.394;9.756;2023-09-19T06:15:11;18.50;99.90
3208;DHT22;1616;52.394;9.756;2023-09-19T06:17:42;18.90;99.90
3208;DHT22;1616;52.394;9.756;2023-09-19T06:20:08;19.50;99.90
3208;DHT22;1616;52.394;9.756;2023-09-19T06:22:43;20.10;99.90
3208;DHT22;1616;52.394;9.756;2023-09-19T06:25:14;20.70;99.90
3208;DHT22;1616;52.394;9.756;2023-09-19T06:27:46;21.30;99.90
3208;DHT22;1616;52.394;9.756;2023-09-19T06:30:12;21.80;99.90
3208;DHT22;1616;52.394;9.756;2023-09-19T06:32:42;22.20;99.90
3208;DHT22;1616;52.394;9.756;2023-09-19T06:35:15;22.60;99.90
3208;DHT22;1616;52.394;9.756;2023-09-19T06:37:42;23.00;99.90
3208;DHT22;1616;52.394;9.756;2023-09-19T06:40:10;23.40;99.90
3208;DHT22;1616;52.394;9.756;2023-09-19T06:42:47;23.50;99.90
3208;DHT22;1616;52.394;9.756;2023-09-19T06:45:15;23.70;99.90
3208;DHT22;1616;52.394;9.756;2023-09-19T06:47:48;23.90;99.90
3208;DHT22;1616;52.394;9.756;2023-09-19T06:50:17;23.90;99.90
3208;DHT22;1616;52.394;9.756;2023-09-19T06:52:45;24.10;99.90
3208;DHT22;1616;52.394;9.756;2023-09-19T06:55:13;24.40;99.90
3208;DHT22;1616;52.394;9.756;2023-09-19T06:57:44;24.60;99.90
3208;DHT22;1616;52.394;9.756;2023-09-19T07:00:11;24.90;99.90
3208;DHT22;1616;52.394;9.756;2023-09-19T07:03:02;25.30;99.90
3208;DHT22;1616;52.394;9.756;2023-09-19T07:05:30;25.80;99.90
3208;DHT22;1616;52.394;9.756;2023-09-19T07:07:57;26.10;99.90
3208;DHT22;1616;52.394;9.756;2023-09-19T07:10:29;26.60;99.90
3208;DHT22;1616;52.394;9.756;2023-09-19T07:12:59;27.00;99.90
3208;DHT22;1616;52.394;9.756;2023-09-19T07:15:26;27.20;99.90
3208;DHT22;1616;52.394;9.756;2023-09-19T07:17:53;27.20;99.90
3208;DHT22;1616;52.394;9.756;2023-09-19T07:20:19;27.50;99.90
3208;DHT22;1616;52.394;9.756;2023-09-19T07:22:45;27.60;99.90
3208;DHT22;1616;52.394;9.756;2023-09-19T07:25:12;27.60;99.90
3208;DHT22;1616;52.394;9.756;2023-09-19T07:27:43;27.40;99.90
3208;DHT22;1616;52.394;9.756;2023-09-19T07:30:09;27.50;99.90
3208;DHT22;1616;52.394;9.756;2023-09-19T07:32:35;27.50;99.90
3208;DHT22;1616;52.394;9.756;2023-09-19T07:35:05;27.50;99.90
3208;DHT22;1616;52.394;9.756;2023-09-19T07:37:34;27.60;99.90
3208;DHT22;1616;52.394;9.756;2023-09-19T07:40:00;25.40;99.90
3208;DHT22;1616;52.394;9.756;2023-09-19T07:42:27;27.80;99.90
3208;DHT22;1616;52.394;9.756;2023-09-19T07:44:52;27.80;99.90
3208;DHT22;1616;52.394;9.756;2023-09-19T07:47:20;27.80;99.90
3208;DHT22;1616;52.394;9.756;2023-09-19T07:49:47;27.90;99.90
3208;DHT22;1616;52.394;9.756;2023-09-19T07:52:13;27.90;99.90
3208;DHT22;1616;52.394;9.756;2023-09-19T07:54:39;27.90;99.90
3208;DHT22;1616;52.394;9.756;2023-09-19T07:57:07;27.90;99.90
3208;DHT22;1616;52.394;9.756;2023-09-19T07:59:32;27.90;99.90
3208;DHT22;1616;52.394;9.756;2023-09-19T08:01:58;27.70;99.90
3208;DHT22;1616;52.394;9.756;2023-09-19T08:04:24;27.60;99.90
3208;DHT22;1616;52.394;9.756;2023-09-19T08:06:51;27.50;99.90
3208;DHT22;1616;52.394;9.756;2023-09-19T08:09:17;27.50;99.90
3208;DHT22;1616;52.394;9.756;2023-09-19T08:11:47;27.70;99.90
3208;DHT22;1616;52.394;9.756;2023-09-19T08:14:13;27.70;99.90
3208;DHT22;1616;52.394;9.756;2023-09-19T08:16:40;27.50;99.90
3208;DHT22;1616;52.394;9.756;2023-09-19T08:19:05;27.10;99.90
3208;DHT22;1616;52.394;9.756;2023-09-19T08:21:31;26.80;99.90
3208;DHT22;1616;52.394;9.756;2023-09-19T08:23:57;26.60;99.90
3208;DHT22;1616;52.394;9.756;2023-09-19T08:26:23;26.60;99.90
3208;DHT22;1616;52.394;9.756;2023-09-19T08:28:50;26.40;99.90
3208;DHT22;1616;52.394;9.756;2023-09-19T08:31:17;26.20;99.90
3208;DHT22;1616;52.394;9.756;2023-09-19T08:33:43;26.10;99.90
3208;DHT22;1616;52.394;9.756;2023-09-19T08:36:15;25.80;99.90
3208;DHT22;1616;52.394;9.756;2023-09-19T08:38:42;25.80;99.90
3208;DHT22;1616;52.394;9.756;2023-09-19T08:41:08;25.90;99.90
3208;DHT22;1616;52.394;9.756;2023-09-19T08:43:34;26.10;99.90
3208;DHT22;1616;52.394;9.756;2023-09-19T08:46:14;26.30;99.90
3208;DHT22;1616;52.394;9.756;2023-09-19T08:48:58;26.40;99.90
3208;DHT22;1616;52.394;9.756;2023-09-19T08:51:36;26.30;99.90
3208;DHT22;1616;52.394;9.756;2023-09-19T08:54:08;26.30;99.90
3208;DHT22;1616;52.394;9.756;2023-09-19T08:56:39;26.30;99.90
3208;DHT22;1616;52.394;9.756;2023-09-19T08:59:06;26.40;99.90
3208;DHT22;1616;52.394;9.756;2023-09-19T09:01:37;26.60;99.90
3208;DHT22;1616;52.394;9.756;2023-09-19T09:04:08;26.90;99.90
3208;DHT22;1616;52.394;9.756;2023-09-19T09:06:34;27.00;99.90
3208;DHT22;1616;52.394;9.756;2023-09-19T09:09:02;27.00;99.90
3208;DHT22;1616;52.394;9.756;2023-09-19T09:11:29;27.00;99.90
3208;DHT22;1616;52.394;9.756;2023-09-19T09:13:54;27.10;99.90
3208;DHT22;1616;52.394;9.756;2023-09-19T09:16:20;27.20;99.90
3208;DHT22;1616;52.394;9.756;2023-09-19T09:18:46;27.20;99.90
3208;DHT22;1616;52.394;9.756;2023-09-19T09:21:18;27.30;99.90
3208;DHT22;1616;52.394;9.756;2023-09-19T09:23:43;27.30;99.90
3208;DHT22;1616;52.394;9.756;2023-09-19T09:26:09;27.20;99.90
3208;DHT22;1616;52.394;9.756;2023-09-19T09:28:36;26.90;99.90
3208;DHT22;1616;52.394;9.756;2023-09-19T09:31:22;26.40;99.90
3208;DHT22;1616;52.394;9.756;2023-09-19T09:33:56;26.20;99.90
3208;DHT22;1616;52.394;9.756;2023-09-19T09:36:39;26.10;99.90
3208;DHT22;1616;52.394;9.756;2023-09-19T09:39:07;26.00;99.90
3208;DHT22;1616;52.394;9.756;2023-09-19T09:41:50;26.60;99.90
3208;DHT22;1616;52.394;9.756;2023-09-19T09:44:17;25.90;99.90
3208;DHT22;1616;52.394;9.756;2023-09-19T09:46:44;25.90;99.90
3208;DHT22;1616;52.394;9.756;2023-09-19T09:49:13;26.00;99.90
3208;DHT22;1616;52.394;9.756;2023-09-19T09:52:04;26.20;99.90
3208;DHT22;1616;52.394;9.756;2023-09-19T09:55:03;26.40;99.90
3208;DHT22;1616;52.394;9.756;2023-09-19T09:57:31;26.40;99.90
3208;DHT22;1616;52.394;9.756;2023-09-19T09:59:58;26.40;99.90
3208;DHT22;1616;52.394;9.756;2023-09-19T10:02:30;26.20;99.90
3208;DHT22;1616;52.394;9.756;2023-09-19T10:04:59;26.00;99.90
3208;DHT22;1616;52.394;9.756;2023-09-19T10:07:33;25.90;99.90
3208;DHT22;1616;52.394;9.756;2023-09-19T10:10:04;25.90;99.90
3208;DHT22;1616;52.394;9.756;2023-09-19T10:12:48;25.90;99.90
3208;DHT22;1616;52.394;9.756;2023-09-19T10:15:18;25.90;99.90
3208;DHT22;1616;52.394;9.756;2023-09-19T10:17:47;26.10;99.90
3208;DHT22;1616;52.394;9.756;2023-09-19T10:20:15;26.30;99.90
3208;DHT22;1616;52.394;9.756;2023-09-19T10:23:05;26.50;99.90
3208;DHT22;1616;52.394;9.756;2023-09-19T10:25:37;26.70;99.90
3208;DHT22;1616;52.394;9.756;2023-09-19T10:28:05;26.80;99.90
3208;DHT22;1616;52.394;9.756;2023-09-19T10:30:38;26.70;99.90
3208;DHT22;1616;52.394;9.756;2023-09-19T10:33:09;26.40;99.90
3208;DHT22;1616;52.394;9.756;2023-09-19T10:35:44;26.20;99.90
3208;DHT22;1616;52.394;9.756;2023-09-19T10:38:15;25.90;99.90
3208;DHT22;1616;52.394;9.756;2023-09-19T10:40:42;25.70;99.90
3208;DHT22;1616;52.394;9.756;2023-09-19T10:43:16;25.50;99.90
3208;DHT22;1616;52.394;9.756;2023-09-19T10:45:45;25.60;99.90
3208;DHT22;1616;52.394;9.756;2023-09-19T10:48:15;25.60;99.90
3208;DHT22;1616;52.394;9.756;2023-09-19T10:51:04;25.80;99.90
3208;DHT22;1616;52.394;9.756;2023-09-19T10:54:02;26.40;99.90
3208;DHT22;1616;52.394;9.756;2023-09-19T10:56:34;26.90;99.90
3208;DHT22;1616;52.394;9.756;2023-09-19T10:59:11;27.10;99.90
3208;DHT22;1616;52.394;9.756;2023-09-19T11:01:47;27.20;99.90
3208;DHT22;1616;52.394;9.756;2023-09-19T11:04:31;27.10;99.90
3208;DHT22;1616;52.394;9.756;2023-09-19T11:07:05;26.90;99.90
3208;DHT22;1616;52.394;9.756;2023-09-19T11:09:43;26.80;99.90
3208;DHT22;1616;52.394;9.756;2023-09-19T11:12:12;26.70;99.90
3208;DHT22;1616;52.394;9.756;2023-09-19T11:14:39;26.50;99.90
3208;DHT22;1616;52.394;9.756;2023-09-19T11:30:44;26.70;99.90
3208;DHT22;1616;52.394;9.756;2023-09-19T11:33:29;26.80;99.90
3208;DHT22;1616;52.394;9.756;2023-09-19T11:36:08;26.70;99.90
3208;DHT22;1616;52.394;9.756;2023-09-19T11:43:54;26.60;99.90
3208;DHT22;1616;52.394;9.756;2023-09-19T11:46:59;26.60;99.90
3208;DHT22;1616;52.394;9.756;2023-09-19T11:49:30;26.60;99.90
3208;DHT22;1616;52.394;9.756;2023-09-19T11:51:58;26.70;99.90
3208;DHT22;1616;52.394;9.756;2023-09-19T11:54:27;26.40;99.90
3208;DHT22;1616;52.394;9.756;2023-09-19T11:56:59;26.40;99.90
3208;DHT22;1616;52.394;9.756;2023-09-19T11:59:31;26.60;99.90
3208;DHT22;1616;52.394;9.756;2023-09-19T12:02:04;26.80;99.90
3208;DHT22;1616;52.394;9.756;2023-09-19T12:04:38;26.70;99.90
3208;DHT22;1616;52.394;9.756;2023-09-19T12:07:09;26.40;99.90
3208;DHT22;1616;52.394;9.756;2023-09-19T12:09:45;26.40;99.90
3208;DHT22;1616;52.394;9.756;2023-09-19T12:12:21;26.30;99.90
3208;DHT22;1616;52.394;9.756;2023-09-19T12:14:50;26.30;99.90
3208;DHT22;1616;52.394;9.756;2023-09-19T12:17:18;26.40;99.90
3208;DHT22;1616;52.394;9.756;2023-09-19T12:19:56;26.20;99.90
3208;DHT22;1616;52.394;9.756;2023-09-19T12:22:22;25.80;99.90
3208;DHT22;1616;52.394;9.756;2023-09-19T12:24:48;25.50;99.90
3208;DHT22;1616;52.394;9.756;2023-09-19T12:27:14;25.30;99.90
3208;DHT22;1616;52.394;9.756;2023-09-19T12:29:49;25.20;99.90
3208;DHT22;1616;52.394;9.756;2023-09-19T12:32:16;25.10;99.90
3208;DHT22;1616;52.394;9.756;2023-09-19T12:34:42;24.90;99.90
3208;DHT22;1616;52.394;9.756;2023-09-19T12:37:16;24.80;99.90
3208;DHT22;1616;52.394;9.756;2023-09-19T12:39:50;24.60;99.90
3208;DHT22;1616;52.394;9.756;2023-09-19T12:42:24;24.50;99.90
3208;DHT22;1616;52.394;9.756;2023-09-19T12:44:54;24.60;99.90
3208;DHT22;1616;52.394;9.756;2023-09-19T12:47:24;24.70;99.90
3208;DHT22;1616;52.394;9.756;2023-09-19T12:52:40;24.70;99.90
3208;DHT22;1616;52.394;9.756;2023-09-19T12:55:06;24.50;99.90
3208;DHT22;1616;52.394;9.756;2023-09-19T12:57:34;24.50;99.90
3208;DHT22;1616;52.394;9.756;2023-09-19T13:00:01;24.50;99.90
3208;DHT22;1616;52.394;9.756;2023-09-19T13:02:28;24.40;99.90
3208;DHT22;1616;52.394;9.756;2023-09-19T13:04:54;24.20;99.90
3208;DHT22;1616;52.394;9.756;2023-09-19T13:07:44;24.00;99.90
3208;DHT22;1616;52.394;9.756;2023-09-19T13:10:11;24.00;99.90
3208;DHT22;1616;52.394;9.756;2023-09-19T13:12:42;23.90;99.90
3208;DHT22;1616;52.394;9.756;2023-09-19T13:15:14;23.90;99.90
3208;DHT22;1616;52.394;9.756;2023-09-19T13:17:49;23.90;99.90
3208;DHT22;1616;52.394;9.756;2023-09-19T13:20:25;23.80;99.90
3208;DHT22;1616;52.394;9.756;2023-09-19T13:22:55;23.90;99.90
3208;DHT22;1616;52.394;9.756;2023-09-19T13:25:24;23.90;99.90
3208;DHT22;1616;52.394;9.756;2023-09-19T13:27:53;23.80;99.90
3208;DHT22;1616;52.394;9.756;2023-09-19T13:30:20;23.70;99.90
3208;DHT22;1616;52.394;9.756;2023-09-19T13:32:47;23.60;99.90
3208;DHT22;1616;52.394;9.756;2023-09-19T13:35:14;23.50;99.90
3208;DHT22;1616;52.394;9.756;2023-09-19T13:37:42;23.50;99.90
3208;DHT22;1616;52.394;9.756;2023-09-19T13:40:12;23.40;99.90
3208;DHT22;1616;52.394;9.756;2023-09-19T13:42:38;23.40;99.90
3208;DHT22;1616;52.394;9.756;2023-09-19T13:45:06;23.30;99.90
3208;DHT22;1616;52.394;9.756;2023-09-19T13:47:36;23.30;99.90
3208;DHT22;1616;52.394;9.756;2023-09-19T13:50:03;23.20;99.90
3208;DHT22;1616;52.394;9.756;2023-09-19T13:52:33;23.10;99.90
3208;DHT22;1616;52.394;9.756;2023-09-19T13:54:59;22.90;99.90
3208;DHT22;1616;52.394;9.756;2023-09-19T13:57:26;22.90;99.90
3208;DHT22;1616;52.394;9.756;2023-09-19T13:59:52;22.90;99.90
3208;DHT22;1616;52.394;9.756;2023-09-19T14:02:20;22.80;99.90
3208;DHT22;1616;52.394;9.756;2023-09-19T14:04:49;22.70;99.90
3208;DHT22;1616;52.394;9.756;2023-09-19T14:07:15;22.70;99.90
3208;DHT22;1616;52.394;9.756;2023-09-19T14:09:44;22.60;99.90
3208;DHT22;1616;52.394;9.756;2023-09-19T14:12:11;22.50;99.90
3208;DHT22;1616;52.394;9.756;2023-09-19T14:14:36;22.50;99.90
3208;DHT22;1616;52.394;9.756;2023-09-19T14:17:03;22.50;99.90
3208;DHT22;1616;52.394;9.756;2023-09-19T14:19:30;22.50;99.90
3208;DHT22;1616;52.394;9.756;2023-09-19T14:21:55;22.50;99.90
3208;DHT22;1616;52.394;9.756;2023-09-19T14:24:22;22.50;99.90
3208;DHT22;1616;52.394;9.756;2023-09-19T14:26:48;22.40;99.90
3208;DHT22;1616;52.394;9.756;2023-09-19T14:29:15;22.40;99.90
3208;DHT22;1616;52.394;9.756;2023-09-19T14:31:42;22.40;99.90
3208;DHT22;1616;52.394;9.756;2023-09-19T14:34:08;22.50;99.90
3208;DHT22;1616;52.394;9.756;2023-09-19T14:36:36;22.60;99.90
3208;DHT22;1616;52.394;9.756;2023-09-19T14:39:01;22.70;99.90
3208;DHT22;1616;52.394;9.756;2023-09-19T14:41:27;22.90;99.90
3208;DHT22;1616;52.394;9.756;2023-09-19T14:43:53;22.90;99.90
3208;DHT22;1616;52.394;9.756;2023-09-19T14:46:20;23.00;99.90
3208;DHT22;1616;52.394;9.756;2023-09-19T14:48:46;22.90;99.90
3208;DHT22;1616;52.394;9.756;2023-09-19T14:51:13;22.80;99.90
3208;DHT22;1616;52.394;9.756;2023-09-19T14:53:40;22.70;99.90
3208;DHT22;1616;52.394;9.756;2023-09-19T14:56:08;22.60;99.90
3208;DHT22;1616;52.394;9.756;2023-09-19T14:58:34;22.40;99.90
3208;DHT22;1616;52.394;9.756;2023-09-19T15:01:04;22.30;99.90
3208;DHT22;1616;52.394;9.756;2023-09-19T15:03:32;22.20;99.90
3208;DHT22;1616;52.394;9.756;2023-09-19T15:06:02;22.10;99.90
3208;DHT22;1616;52.394;9.756;2023-09-19T15:08:28;22.20;99.90
3208;DHT22;1616;52.394;9.756;2023-09-19T15:10:54;22.10;99.90
3208;DHT22;1616;52.394;9.756;2023-09-19T15:13:21;22.00;99.90
3208;DHT22;1616;52.394;9.756;2023-09-19T15:15:46;22.10;99.90
3208;DHT22;1616;52.394;9.756;2023-09-19T15:18:14;22.00;99.90
3208;DHT22;1616;52.394;9.756;2023-09-19T15:20:44;22.00;99.90
3208;DHT22;1616;52.394;9.756;2023-09-19T15:23:09;22.00;99.90
3208;DHT22;1616;52.394;9.756;2023-09-19T15:25:35;22.00;99.90
3208;DHT22;1616;52.394;9.756;2023-09-19T15:28:01;22.10;99.90
3208;DHT22;1616;52.394;9.756;2023-09-19T15:30:37;22.10;99.90
3208;DHT22;1616;52.394;9.756;2023-09-19T15:33:04;22.10;99.90
3208;DHT22;1616;52.394;9.756;2023-09-19T15:35:31;22.20;99.90
3208;DHT22;1616;52.394;9.756;2023-09-19T15:37:56;22.20;99.90
3208;DHT22;1616;52.394;9.756;2023-09-19T15:40:25;22.20;99.90
3208;DHT22;1616;52.394;9.756;2023-09-19T15:42:51;22.20;99.90
3208;DHT22;1616;52.394;9.756;2023-09-19T15:45:17;22.20;99.90
3208;DHT22;1616;52.394;9.756;2023-09-19T15:47:44;22.20;99.90
3208;DHT22;1616;52.394;9.756;2023-09-19T15:50:10;22.20;99.90
3208;DHT22;1616;52.394;9.756;2023-09-19T15:52:39;22.10;99.90
3208;DHT22;1616;52.394;9.756;2023-09-19T15:55:06;22.00;99.90
3208;DHT22;1616;52.394;9.756;2023-09-19T15:57:38;22.00;99.90
3208;DHT22;1616;52.394;9.756;2023-09-19T16:00:06;21.90;99.90
3208;DHT22;1616;52.394;9.756;2023-09-19T16:02:38;21.80;99.90
3208;DHT22;1616;52.394;9.756;2023-09-19T16:05:04;21.80;99.90
3208;DHT22;1616;52.394;9.756;2023-09-19T16:07:31;21.70;99.90
3208;DHT22;1616;52.394;9.756;2023-09-19T16:09:57;21.70;99.90
3208;DHT22;1616;52.394;9.756;2023-09-19T16:12:24;21.70;99.90
3208;DHT22;1616;52.394;9.756;2023-09-19T16:14:50;21.70;99.90
3208;DHT22;1616;52.394;9.756;2023-09-19T16:17:15;21.60;99.90
3208;DHT22;1616;52.394;9.756;2023-09-19T16:19:41;21.60;99.90
3208;DHT22;1616;52.394;9.756;2023-09-19T16:22:08;21.60;99.90
3208;DHT22;1616;52.394;9.756;2023-09-19T16:24:34;21.60;99.90
3208;DHT22;1616;52.394;9.756;2023-09-19T16:27:00;21.60;99.90
3208;DHT22;1616;52.394;9.756;2023-09-19T16:29:26;21.50;99.90
3208;DHT22;1616;52.394;9.756;2023-09-19T16:31:52;21.50;99.90
3208;DHT22;1616;52.394;9.756;2023-09-19T16:34:18;21.40;99.90
3208;DHT22;1616;52.394;9.756;2023-09-19T16:36:43;21.40;99.90
3208;DHT22;1616;52.394;9.756;2023-09-19T16:39:09;21.40;99.90
3208;DHT22;1616;52.394;9.756;2023-09-19T16:41:36;21.40;99.90
3208;DHT22;1616;52.394;9.756;2023-09-19T16:44:02;21.30;99.90
3208;DHT22;1616;52.394;9.756;2023-09-19T16:46:29;21.30;99.90
3208;DHT22;1616;52.394;9.756;2023-09-19T16:48:55;21.30;99.90
3208;DHT22;1616;52.394;9.756;2023-09-19T16:51:20;21.20;99.90